Time;durP1;ratioP1;P1;durP2;ratioP2;P2;SDS_P1;SDS_P2;PMS_P1;PMS_P2;Temp;Humidity;BMP_temperature;BMP_pressure;BME280_temperature;BME280_humidity;BME280_pressure;Samples;Min_cycle;Max_cycle;Signal;HPM_P1;HPM_P2
2021/10/23 00:00:12;;;;;;;11.50;4.65;;;9.70;99.90;;;;;;5047612;28;20057;-84
2021/10/23 00:02:38;;;;;;;11.85;3.95;;;10.20;99.90;;;;;;5059293;28;20035;-85
2021/10/23 00:05:06;;;;;;;11.52;4.07;;;9.60;99.90;;;;;;5055255;23;20076;-88
2021/10/23 00:07:32;;;;;;;9.02;3.38;;;9.60;99.90;;;;;;5041565;28;20017;-87
2021/10/23 00:09:58;;;;;;;10.40;3.65;;;9.60;99.90;;;;;;5042320;28;20017;-87
2021/10/23 00:12:23;;;;;;;8.77;3.30;;;9.80;99.90;;;;;;5041301;28;20048;-89
2021/10/23 00:14:49;;;;;;;7.60;3.15;;;9.60;99.90;;;;;;5042034;28;20037;-86
2021/10/23 00:17:15;;;;;;;10.52;3.42;;;9.70;99.90;;;;;;5041300;28;20017;-86
2021/10/23 00:19:41;;;;;;;10.60;3.45;;;9.70;99.90;;;;;;5045881;28;20025;-87
2021/10/23 00:22:06;;;;;;;9.82;3.33;;;10.00;99.90;;;;;;5040295;28;20032;-88
2021/10/23 00:24:32;;;;;;;9.38;3.22;;;9.70;99.90;;;;;;5039779;28;20026;-86
2021/10/23 00:26:58;;;;;;;10.38;3.45;;;9.50;99.90;;;;;;5043817;28;20032;-87
2021/10/23 00:29:24;;;;;;;10.50;3.50;;;9.70;99.90;;;;;;5054420;28;20041;-86
2021/10/23 00:31:49;;;;;;;11.77;3.78;;;9.80;99.90;;;;;;5043390;28;20079;-85
2021/10/23 00:34:15;;;;;;;13.07;3.30;;;9.70;99.90;;;;;;5042613;28;20024;-86
2021/10/23 00:36:41;;;;;;;11.05;3.20;;;9.90;99.90;;;;;;5040571;28;20076;-84
2021/10/23 00:39:07;;;;;;;9.07;3.65;;;9.70;99.90;;;;;;5042272;28;20029;-87
2021/10/23 00:41:33;;;;;;;8.48;3.17;;;9.70;99.90;;;;;;5041725;28;20143;-87
2021/10/23 00:43:59;;;;;;;9.75;2.97;;;9.70;99.90;;;;;;5042176;28;20028;-83
2021/10/23 00:46:24;;;;;;;10.30;2.92;;;9.90;99.90;;;;;;5042379;28;20029;-86
2021/10/23 00:48:50;;;;;;;13.02;3.50;;;9.70;99.90;;;;;;5042178;28;20060;-86
2021/10/23 00:51:16;;;;;;;9.77;3.03;;;9.70;99.90;;;;;;5040932;28;20021;-85
2021/10/23 00:53:44;;;;;;;9.45;3.40;;;9.60;99.90;;;;;;5041328;28;20025;-85
2021/10/23 00:56:10;;;;;;;11.07;3.60;;;9.60;99.90;;;;;;5059029;28;20060;-87
2021/10/23 00:58:38;;;;;;;8.18;2.97;;;9.60;99.90;;;;;;5046886;28;20047;-87
2021/10/23 01:01:04;;;;;;;7.88;3.15;;;9.60;99.90;;;;;;5040773;28;20035;-88
2021/10/23 01:03:30;;;;;;;8.10;3.50;;;9.60;99.90;;;;;;5040962;28;20052;-88
2021/10/23 01:05:56;;;;;;;15.90;4.10;;;9.60;99.90;;;;;;5040560;28;20168;-85
2021/10/23 01:08:22;;;;;;;9.45;2.97;;;9.00;99.90;;;;;;5040970;28;20482;-85
2021/10/23 01:10:49;;;;;;;12.68;3.90;;;10.00;99.90;;;;;;5031815;28;20044;-86
2021/10/23 01:13:15;;;;;;;7.50;2.97;;;9.50;99.90;;;;;;5040681;28;20120;-83
2021/10/23 01:15:41;;;;;;;10.85;3.70;;;8.80;99.90;;;;;;5039988;28;20057;-84
2021/10/23 01:18:08;;;;;;;8.70;3.80;;;9.40;99.90;;;;;;5040398;28;20022;-87
2021/10/23 01:20:35;;;;;;;10.27;3.45;;;9.60;99.90;;;;;;5039806;28;20095;-85
2021/10/23 01:23:01;;;;;;;8.15;3.05;;;9.60;99.90;;;;;;5032893;28;20031;-89
2021/10/23 01:25:30;;;;;;;9.82;4.07;;;9.50;99.90;;;;;;5036279;28;20029;-86
2021/10/23 01:27:58;;;;;;;7.85;3.53;;;9.40;99.90;;;;;;5039246;28;20025;-86
2021/10/23 01:30:24;;;;;;;7.07;3.20;;;9.30;99.90;;;;;;5024729;28;20051;-85
2021/10/23 01:32:51;;;;;;;14.38;3.60;;;10.80;99.90;;;;;;5040331;28;20500;-87
2021/10/23 01:35:17;;;;;;;10.13;3.40;;;9.10;99.90;;;;;;5043958;28;20033;-87
2021/10/23 01:37:46;;;;;;;8.25;3.53;;;9.00;99.90;;;;;;5048281;28;20021;-86
2021/10/23 01:40:15;;;;;;;13.05;3.90;;;9.00;99.90;;;;;;5039367;28;20090;-88
2021/10/23 01:42:41;;;;;;;11.25;3.80;;;9.00;99.90;;;;;;5039204;28;20292;-85
2021/10/23 01:45:08;;;;;;;10.85;3.65;;;9.00;99.90;;;;;;5030761;28;20028;-87
2021/10/23 01:47:36;;;;;;;12.23;3.25;;;9.00;99.90;;;;;;5039316;28;20033;-86
2021/10/23 01:50:02;;;;;;;10.45;4.07;;;9.00;99.90;;;;;;5039938;28;20026;-88
2021/10/23 01:52:28;;;;;;;7.35;3.33;;;9.00;99.90;;;;;;5030280;28;20040;-88
2021/10/23 01:54:54;;;;;;;8.93;3.40;;;9.00;99.90;;;;;;5021206;28;20057;-87
2021/10/23 01:57:20;;;;;;;9.80;3.58;;;9.00;99.90;;;;;;5032145;28;20585;-88
2021/10/23 01:59:46;;;;;;;10.60;3.65;;;9.20;99.90;;;;;;5038062;28;20024;-85
2021/10/23 02:02:11;;;;;;;12.90;3.50;;;9.20;99.90;;;;;;5048464;28;20279;-85
2021/10/23 02:04:37;;;;;;;12.18;4.10;;;9.20;99.90;;;;;;5059115;28;20075;-88
2021/10/23 02:07:03;;;;;;;13.75;4.03;;;9.20;99.90;;;;;;5036074;28;20026;-86
2021/10/23 02:09:29;;;;;;;8.82;3.50;;;9.10;99.90;;;;;;5038929;28;20028;-89
2021/10/23 02:11:54;;;;;;;9.63;3.67;;;9.40;99.90;;;;;;5038891;28;20029;-86
2021/10/23 02:14:20;;;;;;;11.02;3.70;;;9.00;99.90;;;;;;5038750;28;20026;-86
2021/10/23 02:16:46;;;;;;;11.13;3.65;;;8.90;99.90;;;;;;5038788;28;20548;-87
2021/10/23 02:19:12;;;;;;;8.70;3.92;;;8.90;99.90;;;;;;5037592;28;20029;-86
2021/10/23 02:21:37;;;;;;;8.95;3.75;;;9.00;99.90;;;;;;5038596;28;20025;-87
2021/10/23 02:24:04;;;;;;;12.18;6.07;;;8.90;99.90;;;;;;5037566;28;20106;-87
2021/10/23 02:26:29;;;;;;;9.77;3.90;;;8.80;99.90;;;;;;5037901;28;20022;-89
2021/10/23 02:28:55;;;;;;;13.48;4.43;;;8.90;99.90;;;;;;5038217;28;20033;-86
2021/10/23 02:31:21;;;;;;;12.48;4.28;;;8.80;99.90;;;;;;5024835;28;20102;-85
2021/10/23 02:33:46;;;;;;;9.80;3.88;;;8.80;99.90;;;;;;5037815;28;20088;-86
2021/10/23 02:36:12;;;;;;;10.05;4.40;;;8.80;99.90;;;;;;5038046;28;20029;-86
2021/10/23 02:38:38;;;;;;;10.65;4.30;;;9.80;99.90;;;;;;5038031;28;20370;-86
2021/10/23 02:41:04;;;;;;;10.38;4.53;;;8.80;99.90;;;;;;5038588;28;20054;-85
2021/10/23 02:43:30;;;;;;;11.50;3.90;;;8.80;99.90;;;;;;5038248;28;20604;-88
2021/10/23 02:45:55;;;;;;;12.50;4.25;;;8.70;99.90;;;;;;5037528;28;20516;-86
2021/10/23 02:48:21;;;;;;;9.80;4.05;;;8.90;99.90;;;;;;5038195;28;20029;-85
2021/10/23 02:50:47;;;;;;;9.60;4.22;;;8.80;99.90;;;;;;5038671;28;20029;-86
2021/10/23 02:53:13;;;;;;;12.60;4.13;;;8.90;99.90;;;;;;5038587;28;20053;-85
2021/10/23 02:55:38;;;;;;;9.40;4.10;;;9.50;99.90;;;;;;5039114;28;20142;-86
2021/10/23 02:58:05;;;;;;;12.07;4.30;;;8.90;99.90;;;;;;5038964;28;20025;-86
2021/10/23 03:00:31;;;;;;;9.52;4.07;;;8.80;99.90;;;;;;5039121;28;20049;-87
2021/10/23 03:02:56;;;;;;;11.55;4.38;;;8.80;99.90;;;;;;5038158;28;20048;-87
2021/10/23 03:05:22;;;;;;;7.53;3.97;;;8.90;99.90;;;;;;5038966;28;20037;-86
2021/10/23 03:07:49;;;;;;;8.40;3.92;;;8.90;99.90;;;;;;5033990;28;20167;-85
2021/10/23 03:10:15;;;;;;;8.25;4.00;;;8.90;99.90;;;;;;5027471;28;20036;-84
2021/10/23 03:12:41;;;;;;;8.15;3.92;;;8.80;99.90;;;;;;5041595;28;20065;-86
2021/10/23 03:15:07;;;;;;;10.88;4.38;;;9.50;99.90;;;;;;5023623;28;20030;-84
2021/10/23 03:17:33;;;;;;;9.88;4.60;;;8.70;99.90;;;;;;5041896;28;20029;-83
2021/10/23 03:19:59;;;;;;;15.32;4.78;;;8.70;99.90;;;;;;5042363;28;20022;-85
2021/10/23 03:22:27;;;;;;;12.93;4.43;;;8.70;99.90;;;;;;5041533;28;20468;-87
2021/10/23 03:24:53;;;;;;;11.15;4.32;;;8.70;99.90;;;;;;5041869;28;20025;-87
2021/10/23 03:27:22;;;;;;;10.20;4.75;;;8.70;99.90;;;;;;5040833;28;20541;-87
2021/10/23 03:29:51;;;;;;;11.02;4.65;;;8.70;99.90;;;;;;5040878;28;20030;-88
2021/10/23 03:32:17;;;;;;;14.65;4.65;;;8.60;99.90;;;;;;5034065;28;20033;-88
2021/10/23 03:34:43;;;;;;;7.88;4.47;;;8.60;99.90;;;;;;5022102;28;20486;-83
2021/10/23 03:37:12;;;;;;;11.95;5.13;;;8.60;99.90;;;;;;5038976;28;20022;-86
2021/10/23 03:39:41;;;;;;;11.20;5.03;;;8.90;99.90;;;;;;5041031;28;20168;-85
2021/10/23 03:42:07;;;;;;;11.38;5.07;;;8.60;99.90;;;;;;5040822;28;20510;-84
2021/10/23 03:44:33;;;;;;;12.50;4.13;;;8.60;99.90;;;;;;5041213;28;20052;-86
2021/10/23 03:46:59;;;;;;;9.02;4.63;;;10.40;99.90;;;;;;5041908;28;20025;-84
2021/10/23 03:49:25;;;;;;;11.93;5.05;;;8.60;99.90;;;;;;5042203;28;20030;-86
2021/10/23 03:51:50;;;;;;;10.48;4.47;;;9.00;99.90;;;;;;5041547;28;20500;-83
2021/10/23 03:54:16;;;;;;;15.00;4.35;;;8.60;99.90;;;;;;5041872;28;20029;-84
2021/10/23 03:56:42;;;;;;;9.15;4.55;;;8.70;99.90;;;;;;5040947;28;20021;-82
2021/10/23 03:59:08;;;;;;;9.88;4.30;;;8.60;99.90;;;;;;5037598;28;20112;-87
2021/10/23 04:01:33;;;;;;;11.35;4.65;;;8.90;99.90;;;;;;5028097;28;20022;-86
2021/10/23 04:03:59;;;;;;;9.98;4.20;;;8.80;99.90;;;;;;5033981;28;20069;-83
2021/10/23 04:06:25;;;;;;;9.43;4.43;;;8.60;99.90;;;;;;5042189;28;20029;-83
2021/10/23 04:08:50;;;;;;;12.10;4.40;;;8.60;99.90;;;;;;5042068;28;20025;-83
2021/10/23 04:11:16;;;;;;;8.95;4.15;;;8.80;99.90;;;;;;5042720;28;20060;-81
2021/10/23 04:13:42;;;;;;;13.32;4.35;;;8.60;99.90;;;;;;5042097;28;20421;-85
2021/10/23 04:16:08;;;;;;;9.65;3.85;;;9.20;99.90;;;;;;5041926;28;20021;-84
2021/10/23 04:18:33;;;;;;;9.27;4.25;;;9.10;99.90;;;;;;5043521;28;20026;-86
2021/10/23 04:20:59;;;;;;;9.63;4.60;;;8.40;99.90;;;;;;5044893;28;20052;-82
2021/10/23 04:23:25;;;;;;;9.63;4.32;;;8.50;99.90;;;;;;5042868;28;20381;-85
2021/10/23 04:25:51;;;;;;;12.68;4.40;;;9.30;99.90;;;;;;5041735;28;20075;-86
2021/10/23 04:28:19;;;;;;;9.27;4.20;;;8.40;99.90;;;;;;5039673;28;20029;-84
2021/10/23 04:30:45;;;;;;;12.18;4.25;;;9.30;99.90;;;;;;5039471;28;20033;-87
2021/10/23 04:33:10;;;;;;;8.23;3.78;;;9.00;99.90;;;;;;5042518;28;20021;-85
2021/10/23 04:35:36;;;;;;;7.40;3.90;;;8.40;99.90;;;;;;5042878;28;20022;-86
2021/10/23 04:38:02;;;;;;;13.23;4.35;;;8.20;99.90;;;;;;5028180;28;20057;-87
2021/10/23 04:40:27;;;;;;;8.13;4.15;;;9.10;99.90;;;;;;5022679;28;20057;-89
2021/10/23 04:42:53;;;;;;;11.32;4.07;;;8.30;99.90;;;;;;5033712;28;20108;-86
2021/10/23 04:45:19;;;;;;;10.45;4.00;;;8.30;99.90;;;;;;5043974;28;20175;-87
2021/10/23 04:47:45;;;;;;;12.05;5.38;;;8.40;99.90;;;;;;5043087;28;20048;-85
2021/10/23 04:50:11;;;;;;;8.57;4.15;;;8.30;99.90;;;;;;5038930;28;20029;-87
2021/10/23 04:52:36;;;;;;;11.68;4.13;;;8.30;99.90;;;;;;5042067;28;20030;-85
2021/10/23 04:55:02;;;;;;;10.07;4.72;;;8.10;99.90;;;;;;5042330;28;20054;-87
2021/10/23 04:57:31;;;;;;;10.10;4.40;;;8.20;99.90;;;;;;5041467;28;20032;-89
2021/10/23 04:59:57;;;;;;;9.65;4.30;;;8.00;99.90;;;;;;5040681;28;20025;-88
2021/10/23 05:02:22;;;;;;;9.00;4.35;;;8.10;99.90;;;;;;5039937;28;20020;-87
2021/10/23 05:04:51;;;;;;;12.35;4.45;;;8.10;99.90;;;;;;5028938;28;20076;-87
2021/10/23 05:07:16;;;;;;;9.75;4.50;;;8.00;99.90;;;;;;5028976;28;20038;-87
2021/10/23 05:09:42;;;;;;;9.88;4.38;;;8.00;99.90;;;;;;5047854;28;20072;-84
2021/10/23 05:12:08;;;;;;;11.38;4.80;;;8.00;99.90;;;;;;5041067;28;20456;-85
2021/10/23 05:14:36;;;;;;;11.40;4.82;;;7.90;99.90;;;;;;5041105;28;20124;-86
2021/10/23 05:17:03;;;;;;;10.40;4.88;;;8.00;99.90;;;;;;5035312;28;20028;-88
2021/10/23 05:19:28;;;;;;;11.57;5.03;;;8.00;99.90;;;;;;5039729;28;20083;-87
2021/10/23 05:21:54;;;;;;;8.18;4.20;;;8.00;99.90;;;;;;5043771;28;20025;-85
2021/10/23 05:24:21;;;;;;;11.65;4.80;;;8.00;99.90;;;;;;5049505;28;20034;-89
2021/10/23 05:26:50;;;;;;;10.05;4.57;;;8.10;99.90;;;;;;5025932;28;20056;-89
2021/10/23 05:29:16;;;;;;;13.40;4.57;;;7.90;99.90;;;;;;5036740;28;20020;-89
2021/10/23 05:31:46;;;;;;;14.95;5.00;;;8.10;99.90;;;;;;5040467;28;20056;-89
2021/10/23 05:34:12;;;;;;;13.05;4.80;;;8.00;99.90;;;;;;5039752;28;20397;-89
2021/10/23 05:36:38;;;;;;;10.98;4.60;;;7.90;99.90;;;;;;5039897;28;20048;-89
2021/10/23 05:39:04;;;;;;;12.02;4.80;;;9.30;99.90;;;;;;5040365;28;20048;-89
2021/10/23 05:41:30;;;;;;;10.82;4.30;;;7.90;99.90;;;;;;5041015;28;20041;-89
2021/10/23 05:43:56;;;;;;;11.18;5.25;;;7.90;99.90;;;;;;5040061;28;20026;-88
2021/10/23 05:46:22;;;;;;;13.35;4.75;;;7.90;99.90;;;;;;5039927;28;20092;-88
2021/10/23 05:48:48;;;;;;;12.85;4.88;;;9.40;99.90;;;;;;5039875;28;20120;-88
2021/10/23 05:51:14;;;;;;;13.68;4.63;;;8.10;99.90;;;;;;5036179;28;20094;-89
2021/10/23 05:53:39;;;;;;;10.32;4.63;;;7.90;99.90;;;;;;5039539;28;20047;-88
2021/10/23 05:56:08;;;;;;;9.10;4.50;;;7.80;99.90;;;;;;5038540;28;20105;-87
2021/10/23 05:58:34;;;;;;;9.90;4.32;;;7.90;99.90;;;;;;5039466;28;20175;-89
2021/10/23 06:01:06;;;;;;;12.57;4.80;;;7.80;99.90;;;;;;5039949;28;20025;-88
2021/10/23 06:03:37;;;;;;;10.50;4.72;;;7.80;99.90;;;;;;5039675;28;20062;-88
2021/10/23 06:06:04;;;;;;;10.93;4.63;;;7.80;99.90;;;;;;5045692;28;20052;-88
2021/10/23 06:08:31;;;;;;;9.38;4.15;;;7.70;99.90;;;;;;5035199;28;20063;-88
2021/10/23 06:10:57;;;;;;;8.30;4.07;;;8.50;99.90;;;;;;5038921;28;20024;-90
2021/10/23 06:13:26;;;;;;;8.25;4.15;;;7.60;99.90;;;;;;5039271;28;20030;-88
2021/10/23 06:15:53;;;;;;;10.07;4.40;;;7.60;99.90;;;;;;5034111;28;20041;-87
2021/10/23 06:18:19;;;;;;;10.18;4.15;;;7.30;99.90;;;;;;5027984;28;20045;-88
2021/10/23 06:20:45;;;;;;;14.52;4.85;;;7.50;99.90;;;;;;5036042;28;20045;-88
2021/10/23 06:23:11;;;;;;;10.40;4.70;;;7.50;99.90;;;;;;5036865;28;20037;-89
2021/10/23 06:25:37;;;;;;;8.90;4.30;;;7.50;99.90;;;;;;5036021;28;20045;-89
2021/10/23 06:28:03;;;;;;;11.15;4.50;;;8.50;99.90;;;;;;5036920;28;20037;-83
2021/10/23 06:30:29;;;;;;;8.75;4.05;;;7.50;99.90;;;;;;5034132;28;20401;-85
2021/10/23 06:32:56;;;;;;;11.40;4.40;;;7.80;99.90;;;;;;5035108;28;20389;-82
2021/10/23 06:35:23;;;;;;;7.38;4.38;;;7.40;99.90;;;;;;5039588;28;20052;-84
2021/10/23 06:37:49;;;;;;;10.60;4.20;;;7.60;99.90;;;;;;5039247;28;20018;-85
2021/10/23 06:40:16;;;;;;;7.00;3.90;;;7.30;99.90;;;;;;5037242;28;20022;-85
2021/10/23 06:42:42;;;;;;;7.70;4.10;;;7.40;99.90;;;;;;5041181;28;20045;-84
2021/10/23 06:45:11;;;;;;;10.05;4.63;;;7.50;99.90;;;;;;5042824;28;20085;-84
2021/10/23 06:47:38;;;;;;;11.25;4.68;;;7.40;99.90;;;;;;5040230;28;20060;-84
2021/10/23 06:50:09;;;;;;;10.80;4.38;;;7.40;99.90;;;;;;5041111;28;20026;-84
2021/10/23 06:52:35;;;;;;;14.60;5.20;;;7.40;99.90;;;;;;5037993;28;20017;-82
2021/10/23 06:55:01;;;;;;;11.27;5.32;;;7.50;99.90;;;;;;5038672;28;20037;-83
2021/10/23 06:57:27;;;;;;;12.55;5.50;;;7.40;99.90;;;;;;5040652;28;20037;-84
2021/10/23 06:59:53;;;;;;;12.48;4.97;;;7.50;99.90;;;;;;5039401;28;20037;-87
2021/10/23 07:02:22;;;;;;;14.50;5.00;;;7.50;99.90;;;;;;5038809;28;20049;-86
2021/10/23 07:04:48;;;;;;;13.90;5.82;;;7.60;99.90;;;;;;5041211;28;20032;-86
2021/10/23 07:07:13;;;;;;;18.98;5.18;;;7.90;99.90;;;;;;5038484;28;20022;-85
2021/10/23 07:09:41;;;;;;;12.38;4.80;;;7.60;99.90;;;;;;5038533;28;20025;-84
2021/10/23 07:12:07;;;;;;;13.38;5.53;;;7.60;99.90;;;;;;5041102;28;20024;-85
2021/10/23 07:14:33;;;;;;;10.35;5.47;;;7.60;99.90;;;;;;5034746;28;20021;-84
2021/10/23 07:16:58;;;;;;;12.27;5.25;;;7.60;99.90;;;;;;5039712;28;20025;-86
2021/10/23 07:19:24;;;;;;;16.90;6.57;;;8.40;99.90;;;;;;5040904;28;20036;-87
2021/10/23 07:21:50;;;;;;;12.63;6.72;;;8.60;99.90;;;;;;5041373;28;20040;-84
2021/10/23 07:24:19;;;;;;;13.52;6.13;;;7.60;99.90;;;;;;5040910;28;20432;-85
2021/10/23 07:26:45;;;;;;;8.45;5.32;;;7.60;99.90;;;;;;5042262;28;20022;-87
2021/10/23 07:29:12;;;;;;;14.18;6.15;;;7.60;99.90;;;;;;5040597;28;20079;-88
2021/10/23 07:31:39;;;;;;;10.65;6.25;;;7.40;99.90;;;;;;5041679;28;20029;-86
2021/10/23 07:34:05;;;;;;;11.45;6.28;;;7.50;99.90;;;;;;5045887;28;20103;-86
2021/10/23 07:36:30;;;;;;;15.40;5.97;;;7.50;99.90;;;;;;5047777;28;20021;-87
2021/10/23 07:38:56;;;;;;;15.70;6.03;;;7.70;99.90;;;;;;5038957;28;20014;-83
2021/10/23 07:41:25;;;;;;;13.60;5.72;;;7.80;99.90;;;;;;5051308;28;20028;-86
2021/10/23 07:43:51;;;;;;;11.57;5.45;;;8.20;99.90;;;;;;5041199;28;20029;-87
2021/10/23 07:46:16;;;;;;;18.00;6.35;;;7.40;99.90;;;;;;5041208;28;20021;-86
2021/10/23 07:48:43;;;;;;;11.88;6.13;;;7.70;99.90;;;;;;5034823;28;20068;-87
2021/10/23 07:51:10;;;;;;;12.60;5.85;;;7.80;99.90;;;;;;5035845;28;20117;-87
2021/10/23 07:53:36;;;;;;;15.73;6.38;;;7.80;99.90;;;;;;5036353;28;20497;-86
2021/10/23 07:56:02;;;;;;;12.65;6.45;;;7.80;99.90;;;;;;5040348;28;20033;-83
2021/10/23 07:58:29;;;;;;;13.73;6.35;;;8.10;99.90;;;;;;5040809;28;20044;-83
2021/10/23 08:00:55;;;;;;;14.15;6.65;;;8.10;99.90;;;;;;5033764;28;20048;-83
2021/10/23 08:03:24;;;;;;;13.13;6.72;;;8.20;99.90;;;;;;5036062;28;20026;-85
2021/10/23 08:05:50;;;;;;;10.73;6.05;;;8.20;99.90;;;;;;5037275;28;20184;-89
2021/10/23 08:08:16;;;;;;;12.50;6.20;;;8.70;99.90;;;;;;5043959;28;20052;-85
2021/10/23 08:10:42;;;;;;;10.77;6.22;;;;;;;;;;5042715;28;20123;-86
2021/10/23 08:13:07;;;;;;;12.32;5.90;;;8.70;99.90;;;;;;5039860;28;20030;-88
2021/10/23 08:15:34;;;;;;;13.13;5.63;;;8.90;99.90;;;;;;5039604;28;20029;-86
2021/10/23 08:18:03;;;;;;;11.02;5.63;;;9.00;99.90;;;;;;5038642;28;20268;-87
2021/10/23 08:20:34;;;;;;;11.80;5.80;;;9.80;99.90;;;;;;5039181;28;20022;-84
2021/10/23 08:23:00;;;;;;;9.35;5.28;;;9.40;99.90;;;;;;5030218;28;20030;-85
2021/10/23 08:25:27;;;;;;;7.90;4.63;;;9.60;99.90;;;;;;5028690;28;20026;-83
2021/10/23 08:27:52;;;;;;;8.43;5.10;;;9.70;99.90;;;;;;5040345;28;20721;-84
2021/10/23 08:30:19;;;;;;;9.50;5.28;;;9.80;99.90;;;;;;5036373;28;20057;-85
2021/10/23 08:32:46;;;;;;;8.77;4.53;;;10.00;99.90;;;;;;5025227;28;20025;-86
2021/10/23 08:35:17;;;;;;;11.13;4.80;;;10.10;99.90;;;;;;5023495;28;20030;-87
2021/10/23 08:37:44;;;;;;;10.13;4.80;;;11.20;99.90;;;;;;5029210;28;20060;-85
2021/10/23 08:40:11;;;;;;;8.95;5.07;;;10.10;99.90;;;;;;5036114;28;20038;-85
2021/10/23 08:42:37;;;;;;;12.30;5.32;;;10.00;99.90;;;;;;5033561;28;20018;-85
2021/10/23 08:45:07;;;;;;;9.30;4.68;;;10.10;99.90;;;;;;5039890;28;20375;-82
2021/10/23 08:47:36;;;;;;;;;;;10.10;99.90;;;;;;5040672;28;20544;-85
2021/10/23 08:50:04;;;;;;;12.85;4.53;;;10.20;99.90;;;;;;5039760;28;20354;-82
2021/10/23 08:52:31;;;;;;;9.05;4.75;;;10.20;99.90;;;;;;5041118;28;20492;-87
2021/10/23 08:54:57;;;;;;;6.20;3.88;;;10.40;99.90;;;;;;5052652;22;20033;-82
2021/10/23 08:57:25;;;;;;;9.38;5.05;;;10.50;99.90;;;;;;5054255;28;20111;-81
2021/10/23 08:59:52;;;;;;;11.30;4.80;;;10.40;99.90;;;;;;5057638;28;20052;-83
2021/10/23 09:02:23;;;;;;;8.93;4.50;;;10.40;99.90;;;;;;5052246;28;20029;-86
2021/10/23 09:04:49;;;;;;;9.05;4.22;;;10.40;99.90;;;;;;5046937;28;20030;-83
2021/10/23 09:07:16;;;;;;;7.32;4.07;;;10.50;99.90;;;;;;5033356;28;20402;-84
2021/10/23 09:09:53;;;;;;;9.48;4.78;;;12.00;99.90;;;;;;5029270;28;20108;-84
2021/10/23 09:23:19;;;;;;;9.75;4.72;;;10.80;99.90;;;;;;5116920;27;20461;-82
2021/10/23 09:25:46;;;;;;;12.35;5.30;;;11.30;99.90;;;;;;5110333;28;20021;-84
2021/10/23 09:28:15;;;;;;;13.80;5.20;;;11.00;99.90;;;;;;5091028;28;20039;-86
2021/10/23 09:30:49;;;;;;;11.23;5.35;;;11.10;99.90;;;;;;5092835;28;20027;-84
2021/10/23 09:33:18;;;;;;;11.20;4.88;;;11.20;99.90;;;;;;5108846;28;20043;-83
2021/10/23 09:35:49;;;;;;;9.73;4.22;;;11.20;99.90;;;;;;5105075;28;20053;-82
2021/10/23 09:38:18;;;;;;;13.88;4.80;;;11.60;99.90;;;;;;5108343;28;20031;-84
2021/10/23 09:40:45;;;;;;;10.90;5.30;;;12.20;99.90;;;;;;5091106;28;20435;-83
2021/10/23 09:43:20;;;;;;;12.32;5.28;;;11.90;99.90;;;;;;5094321;28;20074;-83
2021/10/23 09:45:58;;;;;;;9.73;4.95;;;14.20;99.90;;;;;;5095406;28;20033;-82
2021/10/23 09:48:41;;;;;;;10.23;4.88;;;13.30;99.90;;;;;;5101761;28;20028;-81
2021/10/23 09:51:16;;;;;;;11.60;5.53;;;11.90;99.90;;;;;;5089991;28;20480;-84
2021/10/23 09:53:44;;;;;;;11.43;4.90;;;12.20;99.90;;;;;;5110525;28;20024;-83
2021/10/23 09:56:17;;;;;;;12.02;5.50;;;12.60;99.90;;;;;;5099573;28;20493;-84
2021/10/23 09:59:10;;;;;;;9.18;5.72;;;12.40;99.90;;;;;;5090710;28;20035;-87
2021/10/23 10:01:45;;;;;;;11.65;5.43;;;11.60;99.90;;;;;;5094510;28;20024;-86
2021/10/23 10:04:12;;;;;;;13.57;5.55;;;11.60;99.90;;;;;;5114303;28;20093;-84
2021/10/23 10:06:43;;;;;;;10.00;5.28;;;12.00;99.90;;;;;;5096961;28;20020;-83
2021/10/23 10:09:10;;;;;;;10.27;5.22;;;13.00;99.90;;;;;;5096213;28;20024;-83
2021/10/23 10:11:37;;;;;;;12.48;5.78;;;13.60;99.90;;;;;;5086916;28;20060;-82
2021/10/23 10:14:09;;;;;;;11.95;5.65;;;12.10;99.90;;;;;;5096615;28;20035;-82
2021/10/23 10:16:37;;;;;;;12.55;5.82;;;12.10;99.90;;;;;;5113028;28;20096;-83
2021/10/23 10:19:03;;;;;;;14.38;6.30;;;12.00;99.90;;;;;;5116160;28;20083;-83
2021/10/23 10:21:34;;;;;;;10.25;5.85;;;12.10;99.90;;;;;;5104660;28;20028;-83
2021/10/23 10:24:16;;;;;;;13.48;6.13;;;12.20;99.90;;;;;;5096764;28;20081;-83
2021/10/23 10:27:00;;;;;;;10.65;5.97;;;11.80;99.90;;;;;;5108864;28;20108;-81
2021/10/23 10:29:48;;;;;;;11.10;6.55;;;12.00;99.90;;;;;;5094027;28;20027;-82
2021/10/23 10:32:33;;;;;;;15.05;6.18;;;12.00;99.90;;;;;;5095549;28;20070;-82
2021/10/23 10:38:13;;;;;;;12.30;6.28;;;12.20;99.90;;;;;;5081866;28;20021;-82
2021/10/23 10:40:57;;;;;;;10.65;5.85;;;12.60;99.90;;;;;;5074145;28;20036;-82
2021/10/23 10:43:24;;;;;;;14.07;6.70;;;12.70;99.90;;;;;;5098516;28;20158;-82
2021/10/23 10:45:55;;;;;;;13.82;6.18;;;14.80;99.90;;;;;;5083808;28;20029;-84
2021/10/23 10:48:34;;;;;;;24.08;6.97;;;12.00;99.90;;;;;;5079736;28;20052;-80
2021/10/23 10:51:07;;;;;;;12.35;5.85;;;13.70;99.90;;;;;;5081130;28;20034;-84
2021/10/23 10:54:02;;;;;;;18.75;7.03;;;13.30;99.90;;;;;;5084768;28;20032;-83
2021/10/23 10:56:44;;;;;;;14.50;6.07;;;14.80;99.90;;;;;;5072530;28;20033;-84
2021/10/23 10:59:10;;;;;;;14.50;6.60;;;10.90;99.90;;;;;;5091034;28;20029;-83
2021/10/23 11:01:36;;;;;;;12.98;7.07;;;12.80;99.90;;;;;;5080648;28;20020;-80
2021/10/23 11:04:10;;;;;;;14.60;6.45;;;14.40;99.90;;;;;;5081102;28;20029;-85
2021/10/23 11:06:38;;;;;;;15.18;6.38;;;13.70;99.90;;;;;;5093314;28;20032;-88
2021/10/23 11:09:07;;;;;;;14.32;5.80;;;13.30;99.90;;;;;;5078936;28;20025;-85
2021/10/23 11:11:54;;;;;;;10.98;5.80;;;13.40;99.90;;;;;;5076149;28;20055;-85
2021/10/23 11:14:20;;;;;;;15.30;6.57;;;13.70;99.90;;;;;;5093862;28;20041;-82
2021/10/23 11:17:00;;;;;;;12.95;6.40;;;15.80;99.90;;;;;;5087774;28;20091;-85
2021/10/23 11:19:32;;;;;;;13.57;6.60;;;13.90;99.90;;;;;;5096015;28;20024;-88
2021/10/23 11:22:19;;;;;;;15.18;6.68;;;14.30;99.90;;;;;;5081406;28;20057;-85
2021/10/23 11:24:51;;;;;;;11.40;5.60;;;13.90;99.90;;;;;;5081643;28;20088;-84
2021/10/23 11:27:29;;;;;;;13.38;6.20;;;13.70;99.90;;;;;;5088846;28;21020;-82
2021/10/23 11:30:12;;;;;;;12.10;6.20;;;15.00;99.90;;;;;;5081691;28;20023;-82
2021/10/23 11:33:12;;;;;;;12.63;6.05;;;13.80;99.90;;;;;;5079104;28;20024;-85
2021/10/23 11:35:39;;;;;;;;;;;15.00;99.90;;;;;;5076953;28;20480;-84
2021/10/23 11:38:19;;;;;;;14.55;6.60;;;13.80;99.90;;;;;;5079545;28;19914;-82
2021/10/23 11:40:45;;;;;;;13.83;5.47;;;13.90;99.90;;;;;;5080141;28;20028;-83
2021/10/23 11:43:18;;;;;;;8.82;4.80;;;15.50;99.90;;;;;;5084268;28;20027;-86
2021/10/23 11:45:45;;;;;;;12.52;5.90;;;14.00;98.20;;;;;;5094918;28;20025;-85
2021/10/23 11:48:12;;;;;;;13.80;5.32;;;14.80;98.70;;;;;;5091099;28;20085;-83
2021/10/23 11:50:45;;;;;;;14.50;5.45;;;13.90;98.60;;;;;;5082545;28;20024;-85
2021/10/23 11:53:12;;;;;;;16.67;5.47;;;14.50;98.70;;;;;;5081416;28;20033;-86
2021/10/23 11:55:45;;;;;;;10.60;4.50;;;13.00;98.20;;;;;;5078106;28;20070;-85
2021/10/23 11:58:17;;;;;;;12.15;5.50;;;13.80;98.80;;;;;;5094596;28;20024;-87
2021/10/23 12:00:49;;;;;;;9.82;5.28;;;13.80;99.00;;;;;;5084271;28;20020;-82
2021/10/23 12:03:27;;;;;;;14.23;5.32;;;13.80;99.10;;;;;;5075583;28;20024;-79
2021/10/23 12:05:53;;;;;;;13.20;5.63;;;13.90;99.10;;;;;;5081567;28;20024;-83
2021/10/23 12:08:24;;;;;;;9.32;4.68;;;14.30;99.30;;;;;;5075605;28;20073;-85
2021/10/23 12:11:02;;;;;;;12.35;4.85;;;14.40;97.30;;;;;;5094287;28;20032;-82
2021/10/23 12:14:03;;;;;;;7.72;3.78;;;14.40;97.30;;;;;;5080365;28;20029;-83
2021/10/23 12:16:30;;;;;;;;;;;14.70;97.20;;;;;;5079938;28;20036;-82
2021/10/23 12:19:19;;;;;;;7.90;3.17;;;14.70;97.60;;;;;;5072364;28;19919;-84
2021/10/23 12:22:04;;;;;;;9.02;3.05;;;14.60;97.00;;;;;;5074967;28;20033;-86
2021/10/23 12:24:33;;;;;;;8.75;3.65;;;14.70;97.90;;;;;;5069169;28;20060;-85
2021/10/23 12:27:14;;;;;;;6.03;3.20;;;14.30;97.70;;;;;;5074982;28;20021;-86
2021/10/23 12:29:49;;;;;;;8.45;3.40;;;16.50;98.30;;;;;;5080958;28;20703;-88
2021/10/23 12:32:20;;;;;;;6.22;2.97;;;13.80;98.00;;;;;;5079864;28;20115;-86
2021/10/23 12:34:49;;;;;;;9.27;3.58;;;14.20;98.60;;;;;;5088148;28;20032;-85
2021/10/23 12:37:37;;;;;;;6.65;3.00;;;13.70;98.60;;;;;;5070914;28;20501;-82
2021/10/23 12:40:19;;;;;;;6.47;2.88;;;13.70;98.10;;;;;;5077576;28;20033;-87
2021/10/23 12:42:50;;;;;;;6.75;3.03;;;13.80;98.00;;;;;;5084050;28;20021;-85
2021/10/23 12:45:18;;;;;;;;;;;13.70;98.00;;;;;;5092614;28;20076;-84
2021/10/23 12:47:44;;;;;;;5.28;2.80;;;13.70;98.10;;;;;;5080026;28;19938;-86
2021/10/23 12:50:10;;;;;;;7.80;3.10;;;13.70;98.30;;;;;;5078591;28;20108;-85
2021/10/23 12:52:37;;;;;;;8.98;3.03;;;13.70;98.40;;;;;;5087087;28;20036;-83
2021/10/23 12:55:05;;;;;;;8.60;3.45;;;13.60;99.00;;;;;;5090928;28;20032;-86
2021/10/23 12:57:31;;;;;;;5.30;2.33;;;13.80;99.00;;;;;;5077227;28;20032;-84
2021/10/23 12:59:58;;;;;;;5.80;2.67;;;13.60;98.00;;;;;;5080306;28;20059;-86
2021/10/23 13:02:29;;;;;;;8.15;2.83;;;13.60;98.80;;;;;;5078188;28;20039;-84
2021/10/23 13:04:55;;;;;;;6.57;2.90;;;;;;;;;;5075315;28;20029;-81
2021/10/23 13:07:24;;;;;;;5.55;2.80;;;13.50;98.10;;;;;;5080338;28;20103;-86